Time;durP1;ratioP1;P1;durP2;ratioP2;P2;SDS_P1;SDS_P2;PMS_P1;PMS_P2;Temp;Humidity;BMP_temperature;BMP_pressure;BME280_temperature;BME280_humidity;BME280_pressure;Samples;Min_cycle;Max_cycle;Signal;HPM_P1;HPM_P2
2022/09/19 00:00:41;;;;;;;;;;;11.20;99.90;;;;;;4970948;28;19914;-76
2022/09/19 00:03:07;;;;;;;;;;;11.10;99.90;;;;;;4972693;28;19924;-76
2022/09/19 00:05:32;;;;;;;;;;;11.10;99.90;;;;;;4961029;28;19922;-78
2022/09/19 00:07:58;;;;;;;;;;;11.10;99.90;;;;;;4970020;28;20298;-76
2022/09/19 00:10:29;;;;;;;;;;;11.10;99.90;;;;;;4969908;28;20438;-77
2022/09/19 00:12:55;;;;;;;;;;;11.00;99.90;;;;;;4975627;28;19925;-77
2022/09/19 00:15:22;;;;;;;;;;;11.00;99.90;;;;;;4972664;28;19918;-76
2022/09/19 00:17:50;;;;;;;;;;;10.90;99.90;;;;;;4977164;28;20438;-78
2022/09/19 00:20:16;;;;;;;;;;;10.80;99.90;;;;;;4948781;28;19922;-77
2022/09/19 00:24:45;;;;;;;;;;;10.70;99.90;;;;;;4975730;28;19918;-77
2022/09/19 00:25:28;;;;;;;;;;;10.70;99.90;;;;;;4958359;28;19942;-77
2022/09/19 00:27:54;;;;;;;;;;;10.60;99.90;;;;;;4968627;28;19930;-76
2022/09/19 00:30:20;;;;;;;;;;;10.60;99.90;;;;;;4973579;28;20307;-78
2022/09/19 00:32:46;;;;;;;;;;;10.50;99.90;;;;;;4973337;28;20000;-75
2022/09/19 00:35:12;;;;;;;;;;;10.40;99.90;;;;;;4954768;28;20005;-79
2022/09/19 00:37:38;;;;;;;;;;;10.40;99.90;;;;;;4957408;28;20590;-76
2022/09/19 00:40:04;;;;;;;;;;;10.40;99.90;;;;;;4970056;28;19921;-77
2022/09/19 00:42:34;;;;;;;;;;;10.30;99.90;;;;;;4964782;28;19918;-77
2022/09/19 00:45:12;;;;;;;;;;;10.30;99.90;;;;;;4963111;28;19926;-76
2022/09/19 00:47:44;;;;;;;;;;;10.30;99.90;;;;;;4966807;28;19929;-78
2022/09/19 00:50:13;;;;;;;;;;;10.30;99.90;;;;;;4970548;28;19929;-77
2022/09/19 00:52:54;;;;;;;;;;;10.20;99.90;;;;;;4969365;28;20018;-77
2022/09/19 00:55:20;;;;;;;;;;;10.20;99.90;;;;;;4971002;28;19918;-76
2022/09/19 00:58:05;;;;;;;;;;;10.20;99.90;;;;;;4972473;28;20491;-77
2022/09/19 01:00:34;;;;;;;;;;;10.20;99.90;;;;;;4971906;28;19921;-78
2022/09/19 01:03:09;;;;;;;;;;;10.20;99.90;;;;;;4972442;28;20013;-77
2022/09/19 01:05:58;;;;;;;;;;;10.20;99.90;;;;;;4986287;28;20283;-77
2022/09/19 01:08:33;;;;;;;;;;;10.20;99.90;;;;;;4969246;28;19933;-76
2022/09/19 01:11:10;;;;;;;;;;;10.20;99.90;;;;;;4970680;28;20386;-78
2022/09/19 01:13:55;;;;;;;;;;;10.20;99.90;;;;;;4970128;28;19923;-77
2022/09/19 01:16:24;;;;;;;;;;;10.20;99.90;;;;;;4969958;28;19926;-77
2022/09/19 01:19:04;;;;;;;;;;;10.30;99.90;;;;;;4968368;28;19942;-76
2022/09/19 01:22:05;;;;;;;;;;;10.30;99.90;;;;;;4972791;28;19926;-78
2022/09/19 01:24:47;;;;;;;;;;;10.30;99.90;;;;;;4914205;29;19922;-78
2022/09/19 01:27:17;;;;;;;;;;;10.30;99.90;;;;;;4965577;28;19922;-78
2022/09/19 01:30:01;;;;;;;;;;;10.20;99.90;;;;;;4972738;28;19922;-78
2022/09/19 01:32:37;;;;;;;;;;;10.20;99.90;;;;;;4970451;28;19914;-77
2022/09/19 01:35:11;;;;;;;;;;;10.20;99.90;;;;;;4972890;28;20021;-78
2022/09/19 01:37:40;;;;;;;;;;;10.20;99.90;;;;;;4972208;28;19921;-78
2022/09/19 01:40:07;;;;;;;;;;;10.10;99.90;;;;;;4970708;28;19921;-77
2022/09/19 01:42:33;;;;;;;;;;;10.10;99.90;;;;;;4972608;28;19956;-78
2022/09/19 01:44:58;;;;;;;;;;;10.10;99.90;;;;;;4971615;28;19949;-76
2022/09/19 01:47:46;;;;;;;;;;;10.10;99.90;;;;;;4971495;28;20345;-79
2022/09/19 01:50:34;;;;;;;;;;;10.10;99.90;;;;;;4970244;28;19926;-77
2022/09/19 01:53:05;;;;;;;;;;;10.10;99.90;;;;;;4969588;28;19922;-77
2022/09/19 01:55:35;;;;;;;;;;;10.10;99.90;;;;;;4973791;28;19940;-78
2022/09/19 01:58:21;;;;;;;;;;;10.10;99.90;;;;;;4973807;28;20009;-77
2022/09/19 02:00:52;;;;;;;;;;;10.10;99.90;;;;;;4983550;28;19914;-78
2022/09/19 02:03:22;;;;;;;;;;;10.00;99.90;;;;;;4973416;28;19929;-77
2022/09/19 02:05:49;;;;;;;;;;;10.00;99.90;;;;;;4972594;28;19925;-77
2022/09/19 02:08:31;;;;;;;;;;;10.00;99.90;;;;;;4952363;28;19972;-77
2022/09/19 02:11:06;;;;;;;;;;;10.00;99.90;;;;;;4970945;28;19957;-77
2022/09/19 02:13:34;;;;;;;;;;;9.90;99.90;;;;;;4970764;28;20415;-78
2022/09/19 02:16:20;;;;;;;;;;;9.90;99.90;;;;;;4973164;28;20576;-77
2022/09/19 02:18:57;;;;;;;;;;;9.90;99.90;;;;;;4972407;28;19918;-77
2022/09/19 02:21:26;;;;;;;;;;;9.80;99.90;;;;;;4967227;28;19914;-77
2022/09/19 02:23:56;;;;;;;;;;;9.70;99.90;;;;;;4970741;28;19914;-77
2022/09/19 02:26:22;;;;;;;;;;;9.70;99.90;;;;;;4974471;28;20438;-78
2022/09/19 02:28:52;;;;;;;;;;;9.70;99.90;;;;;;4977244;28;19914;-78
2022/09/19 02:31:20;;;;;;;;;;;9.60;99.90;;;;;;4975408;28;20403;-78
2022/09/19 02:33:47;;;;;;;;;;;9.60;99.90;;;;;;4974300;28;19917;-78
2022/09/19 02:36:18;;;;;;;;;;;9.60;99.90;;;;;;4957379;28;19918;-78
2022/09/19 02:39:04;;;;;;;;;;;9.50;99.90;;;;;;4971563;28;19915;-77
2022/09/19 02:41:36;;;;;;;;;;;9.50;99.90;;;;;;4975637;28;19920;-78
2022/09/19 02:44:04;;;;;;;;;;;9.40;99.90;;;;;;4973235;28;19918;-78
2022/09/19 02:46:37;;;;;;;;;;;9.40;99.90;;;;;;4975452;28;19921;-78
2022/09/19 02:49:09;;;;;;;;;;;9.40;99.90;;;;;;4974969;28;19977;-77
2022/09/19 02:51:43;;;;;;;;;;;9.40;99.90;;;;;;5005556;23;19969;-78
2022/09/19 02:54:20;;;;;;;;;;;9.40;99.90;;;;;;4970194;28;19922;-77
2022/09/19 02:56:48;;;;;;;;;;;9.40;99.90;;;;;;4947268;28;19922;-77
2022/09/19 02:59:23;;;;;;;;;;;9.40;99.90;;;;;;4948186;28;20009;-78
2022/09/19 03:01:52;;;;;;;;;;;9.40;99.90;;;;;;4946275;28;20327;-77
2022/09/19 03:04:20;;;;;;;;;;;9.30;99.90;;;;;;4972219;23;19937;-81
2022/09/19 03:06:59;;;;;;;;;;;9.30;99.90;;;;;;4973639;28;19929;-80
2022/09/19 03:09:26;;;;;;;;;;;9.20;99.90;;;;;;4968540;28;19914;-80
2022/09/19 03:12:28;;;;;;;;;;;9.20;99.90;;;;;;4981561;28;20286;-81
2022/09/19 03:14:58;;;;;;;;;;;9.20;99.90;;;;;;4943906;28;19918;-80
2022/09/19 03:17:27;;;;;;;;;;;9.20;99.90;;;;;;4958075;28;20013;-81
2022/09/19 03:19:52;;;;;;;;;;;9.20;99.90;;;;;;4955140;28;19969;-81
2022/09/19 03:22:18;;;;;;;;;;;9.10;99.90;;;;;;4952825;28;20318;-80
2022/09/19 03:24:43;;;;;;;;;;;9.20;99.90;;;;;;4967651;28;20343;-81
2022/09/19 03:27:09;;;;;;;;;;;9.10;99.90;;;;;;4948458;28;19915;-81
2022/09/19 03:29:35;;;;;;;;;;;9.10;99.90;;;;;;4954718;28;20286;-80
2022/09/19 03:32:01;;;;;;;;;;;9.10;99.90;;;;;;4973629;28;19925;-80
2022/09/19 03:34:28;;;;;;;;;;;9.10;99.90;;;;;;4962914;28;19914;-81
2022/09/19 03:36:53;;;;;;;;;;;9.10;99.90;;;;;;4972592;28;20290;-80
2022/09/19 03:39:19;;;;;;;;;;;9.10;99.90;;;;;;4958173;28;19921;-81
2022/09/19 03:41:44;;;;;;;;;;;9.10;99.90;;;;;;4959425;28;19924;-81
2022/09/19 03:44:11;;;;;;;;;;;9.10;99.90;;;;;;4960968;28;19972;-80
2022/09/19 03:46:36;;;;;;;;;;;9.00;99.90;;;;;;4958611;28;19957;-81
2022/09/19 03:49:02;;;;;;;;;;;9.10;99.90;;;;;;4967830;28;19973;-80
2022/09/19 03:51:30;;;;;;;;;;;9.00;99.90;;;;;;4959701;28;20390;-80
2022/09/19 03:53:56;;;;;;;;;;;9.00;99.90;;;;;;4956421;28;19977;-80
2022/09/19 03:56:21;;;;;;;;;;;9.00;99.90;;;;;;4955819;28;19961;-80
2022/09/19 03:58:47;;;;;;;;;;;9.00;99.90;;;;;;4963481;28;19914;-80
2022/09/19 04:01:14;;;;;;;;;;;8.90;99.90;;;;;;4954099;28;20293;-80
2022/09/19 04:03:40;;;;;;;;;;;8.90;99.90;;;;;;4955663;28;20010;-80
2022/09/19 04:06:07;;;;;;;;;;;8.90;99.90;;;;;;4954675;28;19919;-80
2022/09/19 04:08:33;;;;;;;;;;;8.90;99.90;;;;;;4956006;28;19914;-81
2022/09/19 04:10:59;;;;;;;;;;;8.90;99.90;;;;;;4955142;28;19914;-80
2022/09/19 04:13:24;;;;;;;;;;;8.90;99.90;;;;;;4954536;28;20299;-80
2022/09/19 04:15:51;;;;;;;;;;;8.80;99.90;;;;;;4975979;28;20343;-80
2022/09/19 04:18:17;;;;;;;;;;;8.80;99.90;;;;;;4953626;28;20379;-80
2022/09/19 04:20:44;;;;;;;;;;;8.80;99.90;;;;;;4957967;28;19918;-80
2022/09/19 04:23:10;;;;;;;;;;;8.80;99.90;;;;;;4958169;28;20473;-81
2022/09/19 04:25:35;;;;;;;;;;;8.80;99.90;;;;;;4971229;28;20363;-81
2022/09/19 04:28:03;;;;;;;;;;;8.70;99.90;;;;;;4970103;28;20073;-81
2022/09/19 04:30:30;;;;;;;;;;;8.70;99.90;;;;;;4955937;28;20009;-81
2022/09/19 04:32:55;;;;;;;;;;;8.70;99.90;;;;;;4957260;28;19918;-80
2022/09/19 04:35:22;;;;;;;;;;;8.60;99.90;;;;;;4970822;28;19918;-80
2022/09/19 04:37:48;;;;;;;;;;;8.60;99.90;;;;;;4970354;28;20676;-81
2022/09/19 04:40:13;;;;;;;;;;;8.70;99.90;;;;;;4957632;28;20616;-90
2022/09/19 04:42:39;;;;;;;;;;;8.70;99.90;;;;;;4956107;28;19923;-89
2022/09/19 04:45:07;;;;;;;;;;;8.70;99.90;;;;;;4956106;28;19918;-88
2022/09/19 04:47:33;;;;;;;;;;;8.70;99.90;;;;;;4968409;28;19946;-83
2022/09/19 04:49:59;;;;;;;;;;;8.80;99.90;;;;;;4960383;28;21950;-91
2022/09/19 04:52:25;;;;;;;;;;;8.80;99.90;;;;;;4959473;28;19921;-92
2022/09/19 04:54:52;;;;;;;;;;;8.90;99.90;;;;;;4975824;28;20378;-80
2022/09/19 04:57:17;;;;;;;;;;;8.90;99.90;;;;;;4955911;28;19922;-79
2022/09/19 04:59:43;;;;;;;;;;;9.00;99.90;;;;;;4950683;28;19914;-79
2022/09/19 05:02:08;;;;;;;;;;;9.00;99.90;;;;;;4955372;28;20358;-79
2022/09/19 05:04:35;;;;;;;;;;;9.10;99.90;;;;;;4960484;28;19919;-79
2022/09/19 05:07:00;;;;;;;;;;;9.10;99.90;;;;;;4952002;28;20409;-80
2022/09/19 05:09:26;;;;;;;;;;;9.10;99.90;;;;;;4969768;28;19922;-80
2022/09/19 05:11:53;;;;;;;;;;;9.20;99.90;;;;;;4955592;28;19945;-79
2022/09/19 05:14:21;;;;;;;;;;;9.20;99.90;;;;;;4954302;28;19915;-80
2022/09/19 05:16:50;;;;;;;;;;;9.20;99.90;;;;;;4972005;28;19919;-80
2022/09/19 05:19:15;;;;;;;;;;;9.20;99.90;;;;;;4956742;28;19958;-80
2022/09/19 05:21:43;;;;;;;;;;;9.20;99.90;;;;;;4972990;28;19961;-80
2022/09/19 05:24:09;;;;;;;;;;;9.20;99.90;;;;;;4972402;28;19937;-81
2022/09/19 05:26:34;;;;;;;;;;;9.20;99.90;;;;;;4956705;28;20383;-80
2022/09/19 05:29:00;;;;;;;;;;;9.20;99.90;;;;;;4959385;28;20363;-80
2022/09/19 05:31:25;;;;;;;;;;;9.20;99.90;;;;;;4959453;28;19914;-83
2022/09/19 05:33:51;;;;;;;;;;;9.20;99.90;;;;;;4974768;28;19918;-82
2022/09/19 05:36:17;;;;;;;;;;;9.20;99.90;;;;;;4958443;28;19925;-82
2022/09/19 05:38:44;;;;;;;;;;;9.20;99.90;;;;;;4963391;28;19918;-82
2022/09/19 05:41:10;;;;;;;;;;;9.20;99.90;;;;;;4965385;28;19914;-87
2022/09/19 05:43:35;;;;;;;;;;;9.20;99.90;;;;;;4954946;28;19919;-84
2022/09/19 05:46:01;;;;;;;;;;;9.20;99.90;;;;;;4961112;28;19918;-84
2022/09/19 05:48:26;;;;;;;;;;;9.20;99.90;;;;;;4972227;28;19914;-84
2022/09/19 05:50:53;;;;;;;;;;;9.20;99.90;;;;;;4973409;28;19921;-83
2022/09/19 05:56:04;;;;;;;;;;;9.30;99.90;;;;;;4958972;28;19925;-82
2022/09/19 05:58:30;;;;;;;;;;;9.30;99.90;;;;;;4952569;28;19957;-83
2022/09/19 06:00:56;;;;;;;;;;;9.30;99.90;;;;;;4965127;28;19915;-82
2022/09/19 06:03:22;;;;;;;;;;;9.30;99.90;;;;;;4966599;28;19930;-81
2022/09/19 06:05:48;;;;;;;;;;;9.30;99.90;;;;;;4954931;28;19914;-82
2022/09/19 06:08:15;;;;;;;;;;;9.30;99.90;;;;;;4955030;28;19930;-82
2022/09/19 06:10:41;;;;;;;;;;;9.40;99.90;;;;;;4959559;28;20178;-80
2022/09/19 06:13:10;;;;;;;;;;;9.30;99.90;;;;;;4958398;28;19914;-83
2022/09/19 06:15:38;;;;;;;;;;;9.40;99.90;;;;;;4951005;28;19927;-82
2022/09/19 06:18:04;;;;;;;;;;;9.40;99.90;;;;;;4947430;28;20002;-83
2022/09/19 06:20:29;;;;;;;;;;;9.40;99.90;;;;;;4957224;28;19997;-84
2022/09/19 06:23:01;;;;;;;;;;;9.50;99.90;;;;;;4949406;28;20010;-83
2022/09/19 06:25:28;;;;;;;;;;;9.40;99.90;;;;;;4956488;28;20026;-83
2022/09/19 06:28:01;;;;;;;;;;;9.50;99.90;;;;;;4955333;28;19945;-82
2022/09/19 06:30:27;;;;;;;;;;;9.60;99.90;;;;;;4958876;28;19993;-82
2022/09/19 06:32:53;;;;;;;;;;;9.50;99.90;;;;;;4972039;28;19922;-82
2022/09/19 06:35:20;;;;;;;;;;;9.50;99.90;;;;;;4957183;28;19933;-82
2022/09/19 06:37:47;;;;;;;;;;;9.50;99.90;;;;;;4951571;28;19921;-83
2022/09/19 06:40:13;;;;;;;;;;;9.60;99.90;;;;;;4952651;28;19921;-82
2022/09/19 06:42:38;;;;;;;;;;;9.60;99.90;;;;;;4964273;28;19923;-82
2022/09/19 06:45:06;;;;;;;;;;;9.70;99.90;;;;;;4957144;28;19914;-82
2022/09/19 06:47:32;;;;;;;;;;;9.70;99.90;;;;;;4956703;28;19922;-82
2022/09/19 06:50:00;;;;;;;;;;;9.70;99.90;;;;;;4957861;28;19915;-83
2022/09/19 06:52:28;;;;;;;;;;;9.70;99.90;;;;;;4955769;28;19997;-83
2022/09/19 06:54:54;;;;;;;;;;;9.80;99.90;;;;;;4962773;28;20406;-82
2022/09/19 06:57:20;;;;;;;;;;;9.90;99.90;;;;;;4970598;28;19914;-83
2022/09/19 06:59:46;;;;;;;;;;;9.90;99.90;;;;;;4967128;28;19915;-83
2022/09/19 07:02:12;;;;;;;;;;;9.90;99.90;;;;;;4972434;28;19920;-83
2022/09/19 07:04:38;;;;;;;;;;;9.90;99.90;;;;;;4976497;28;20024;-83
2022/09/19 07:07:04;;;;;;;;;;;10.00;99.90;;;;;;4972414;28;19977;-84
2022/09/19 07:09:30;;;;;;;;;;;10.00;99.90;;;;;;4934790;28;20554;-83
2022/09/19 07:11:56;;;;;;;;;;;10.10;99.90;;;;;;4938358;28;20069;-84
2022/09/19 07:14:22;;;;;;;;;;;10.10;99.90;;;;;;4956874;28;19915;-83
2022/09/19 07:16:48;;;;;;;;;;;10.10;99.90;;;;;;4957201;28;19918;-84
2022/09/19 07:19:14;;;;;;;;;;;10.20;99.90;;;;;;4966474;28;19915;-82
2022/09/19 07:21:39;;;;;;;;;;;10.20;99.90;;;;;;4948630;28;19914;-83
2022/09/19 07:24:06;;;;;;;;;;;10.20;99.90;;;;;;4968573;28;20017;-84
2022/09/19 07:26:31;;;;;;;;;;;10.30;99.90;;;;;;4953050;28;19973;-83
2022/09/19 07:28:57;;;;;;;;;;;10.30;99.90;;;;;;4954825;28;19914;-83
2022/09/19 07:31:22;;;;;;;;;;;10.30;99.90;;;;;;4954638;28;19914;-83
2022/09/19 07:33:48;;;;;;;;;;;10.30;99.90;;;;;;4901759;28;19929;-84
2022/09/19 07:36:14;;;;;;;;;;;10.40;99.90;;;;;;4948016;28;19926;-83
2022/09/19 07:38:39;;;;;;;;;;;10.40;99.90;;;;;;4953797;28;20325;-83
2022/09/19 07:41:05;;;;;;;;;;;10.40;99.90;;;;;;4951416;28;20009;-84
2022/09/19 07:43:30;;;;;;;;;;;10.40;99.90;;;;;;4954919;28;20354;-84
2022/09/19 07:45:56;;;;;;;;;;;10.50;99.90;;;;;;4953699;28;19918;-84
2022/09/19 07:48:22;;;;;;;;;;;10.60;99.90;;;;;;4952187;28;19922;-84
2022/09/19 07:50:47;;;;;;;;;;;10.60;99.90;;;;;;4959352;28;19937;-84
2022/09/19 07:53:14;;;;;;;;;;;10.70;99.90;;;;;;4957292;28;20009;-83
2022/09/19 07:55:43;;;;;;;;;;;10.80;99.90;;;;;;4959303;28;19927;-83
2022/09/19 07:58:10;;;;;;;;;;;10.90;99.90;;;;;;4958555;28;20346;-83
2022/09/19 08:00:36;;;;;;;;;;;10.90;99.90;;;;;;4970540;28;19914;-83
2022/09/19 08:03:03;;;;;;;;;;;11.00;99.90;;;;;;4970050;28;20280;-84
2022/09/19 08:05:35;;;;;;;;;;;11.00;99.90;;;;;;4974632;28;19926;-83
2022/09/19 08:08:00;;;;;;;;;;;11.00;99.90;;;;;;4953708;28;19911;-83
2022/09/19 08:10:26;;;;;;;;;;;11.10;99.90;;;;;;4974528;28;19926;-84
2022/09/19 08:12:52;;;;;;;;;;;11.20;99.90;;;;;;4958115;28;19915;-84
2022/09/19 08:15:19;;;;;;;;;;;11.20;99.90;;;;;;4957350;28;20778;-84
2022/09/19 08:17:54;;;;;;;;;;;11.20;99.90;;;;;;4960080;28;19929;-83
2022/09/19 08:20:20;;;;;;;;;;;11.30;99.90;;;;;;4971100;28;19930;-83
2022/09/19 08:22:45;;;;;;;;;;;11.30;99.90;;;;;;4958512;28;19914;-83
2022/09/19 08:25:11;;;;;;;;;;;11.40;99.90;;;;;;4960032;28;20391;-83
2022/09/19 08:27:37;;;;;;;;;;;11.50;99.90;;;;;;4959461;28;19915;-83
2022/09/19 08:30:04;;;;;;;;;;;11.50;99.90;;;;;;4960153;28;19946;-83
2022/09/19 08:32:30;;;;;;;;;;;11.60;99.90;;;;;;4958379;28;19961;-83
2022/09/19 08:34:55;;;;;;;;;;;11.60;99.90;;;;;;4955572;28;19950;-83
2022/09/19 08:37:21;;;;;;;;;;;11.70;99.90;;;;;;4974458;28;20321;-83
2022/09/19 08:42:37;;;;;;;;;;;11.80;99.90;;;;;;4960220;28;19925;-83
2022/09/19 08:45:06;;;;;;;;;;;11.90;99.90;;;;;;4958346;28;19922;-83
2022/09/19 08:47:33;;;;;;;;;;;11.80;99.90;;;;;;4959693;28;19918;-83
2022/09/19 08:50:05;;;;;;;;;;;11.90;99.90;;;;;;4958180;28;19961;-83
2022/09/19 08:52:36;;;;;;;;;;;11.90;99.90;;;;;;4957743;28;20310;-83
2022/09/19 08:55:04;;;;;;;;;;;11.90;99.90;;;;;;4976806;28;19976;-83
2022/09/19 08:57:35;;;;;;;;;;;12.00;99.90;;;;;;4958888;28;20487;-83
2022/09/19 09:00:02;;;;;;;;;;;12.00;99.90;;;;;;4955915;28;19926;-83
2022/09/19 09:02:43;;;;;;;;;;;12.00;99.90;;;;;;4974397;28;19977;-83
2022/09/19 09:05:17;;;;;;;;;;;12.00;99.90;;;;;;5015689;23;20649;-82
2022/09/19 09:08:03;;;;;;;;;;;12.00;99.90;;;;;;4990213;28;19960;-81
2022/09/19 09:10:29;;;;;;;;;;;12.10;99.90;;;;;;4971906;28;20598;-81
2022/09/19 09:13:05;;;;;;;;;;;12.10;99.90;;;;;;4987182;28;20182;-81
2022/09/19 09:15:30;;;;;;;;;;;12.20;99.90;;;;;;4986193;28;20397;-80
2022/09/19 09:18:11;;;;;;;;;;;12.30;99.90;;;;;;4988841;28;19997;-81
2022/09/19 09:20:58;;;;;;;;;;;12.40;99.90;;;;;;4985558;28;19914;-81
2022/09/19 09:23:30;;;;;;;;;;;12.50;99.90;;;;;;4988665;28;20008;-80
2022/09/19 09:26:01;;;;;;;;;;;12.60;99.90;;;;;;4989144;28;19921;-81
2022/09/19 09:28:38;;;;;;;;;;;12.60;99.90;;;;;;4987523;28;19913;-81
2022/09/19 09:31:19;;;;;;;;;;;12.60;99.90;;;;;;4990239;28;19914;-83
2022/09/19 09:33:50;;;;;;;;;;;12.70;99.90;;;;;;4987276;28;19968;-81
2022/09/19 09:36:23;;;;;;;;;;;12.70;99.90;;;;;;4984211;28;20801;-81
2022/09/19 09:38:55;;;;;;;;;;;12.70;99.90;;;;;;4987830;28;19914;-82
2022/09/19 09:41:47;;;;;;;;;;;12.70;99.90;;;;;;4987892;28;19925;-82
2022/09/19 09:44:13;;;;;;;;;;;12.70;99.90;;;;;;4984812;28;19968;-81
2022/09/19 09:46:54;;;;;;;;;;;12.70;99.90;;;;;;4967639;28;19917;-81
2022/09/19 09:49:27;;;;;;;;;;;12.80;99.90;;;;;;4987668;28;20374;-81
2022/09/19 09:52:04;;;;;;;;;;;12.80;99.90;;;;;;4985631;28;19921;-82
2022/09/19 09:57:36;;;;;;;;;;;12.80;99.90;;;;;;4984255;28;19944;-83
2022/09/19 10:05:53;;;;;;;7.00;2.38;;;12.80;99.90;;;;;;5000069;28;20702;-76
2022/09/19 10:08:27;;;;;;;4.82;2.35;;;12.80;99.90;;;;;;5004247;28;20025;-77
2022/09/19 10:11:17;;;;;;;8.88;1.40;;;12.80;99.90;;;;;;5005150;28;20533;-76
2022/09/19 10:14:04;;;;;;;3.95;1.33;;;12.90;99.90;;;;;;5006383;28;20042;-76
2022/09/19 10:16:35;;;;;;;4.45;1.50;;;13.00;99.90;;;;;;5020431;28;20172;-76
2022/09/19 10:19:21;;;;;;;5.35;1.60;;;13.10;99.90;;;;;;5008574;28;20087;-77
2022/09/19 10:21:48;;;;;;;7.28;1.20;;;13.10;99.90;;;;;;5000836;28;20026;-77
2022/09/19 10:24:40;;;;;;;5.53;1.23;;;13.10;99.90;;;;;;5003383;28;20517;-77
2022/09/19 10:27:23;;;;;;;4.18;1.08;;;13.10;99.90;;;;;;5006527;28;20053;-76
2022/09/19 10:30:12;;;;;;;5.70;1.30;;;13.00;99.90;;;;;;5004472;28;20030;-77
2022/09/19 10:32:38;;;;;;;4.55;1.20;;;13.00;99.90;;;;;;5004462;28;20038;-76
2022/09/19 10:35:25;;;;;;;4.28;1.45;;;12.90;99.90;;;;;;5000191;28;20081;-77
2022/09/19 10:38:21;;;;;;;2.40;1.08;;;12.90;99.90;;;;;;5001704;28;20022;-77
2022/09/19 10:40:55;;;;;;;5.45;1.25;;;12.80;99.90;;;;;;4997927;28;20678;-77
2022/09/19 10:43:47;;;;;;;4.38;1.08;;;12.80;99.90;;;;;;5004694;28;20034;-77
2022/09/19 10:46:21;;;;;;;5.10;1.05;;;12.80;99.90;;;;;;5014628;28;20038;-77
2022/09/19 10:48:56;;;;;;;6.93;1.58;;;12.90;99.90;;;;;;5002282;28;20023;-77
2022/09/19 10:51:35;;;;;;;7.90;1.38;;;12.90;99.90;;;;;;5005025;28;20033;-76
2022/09/19 10:54:11;;;;;;;5.60;1.55;;;13.00;99.90;;;;;;5018757;28;20454;-77
2022/09/19 10:56:41;;;;;;;6.18;1.05;;;13.10;99.90;;;;;;5005093;28;20026;-76
2022/09/19 10:59:36;;;;;;;4.47;1.08;;;13.20;99.90;;;;;;5003826;28;20038;-76
2022/09/19 11:02:24;;;;;;;2.53;1.20;;;13.20;99.90;;;;;;4998974;28;20058;-77
2022/09/19 11:05:04;;;;;;;3.92;1.25;;;13.20;99.90;;;;;;5006100;28;20033;-77
2022/09/19 11:07:33;;;;;;;2.00;0.85;;;13.20;99.90;;;;;;5005132;28;20030;-76
2022/09/19 11:10:47;;;;;;;5.05;1.10;;;13.20;99.90;;;;;;5014654;28;20039;-77
2022/09/19 11:13:15;;;;;;;5.18;1.40;;;13.30;99.90;;;;;;4990335;28;20046;-77
2022/09/19 11:15:51;;;;;;;11.35;1.42;;;13.40;99.90;;;;;;4991377;28;20031;-77
2022/09/19 11:19:01;;;;;;;9.35;1.50;;;13.50;99.90;;;;;;4990237;28;20038;-76
2022/09/19 11:21:47;;;;;;;3.15;1.25;;;13.70;99.90;;;;;;4992017;28;20136;-77
2022/09/19 11:24:40;;;;;;;5.95;1.55;;;13.80;99.90;;;;;;4996587;28;20441;-77
2022/09/19 11:27:29;;;;;;;7.15;1.10;;;13.90;99.90;;;;;;4988220;28;20902;-76
2022/09/19 11:30:26;;;;;;;4.28;0.98;;;13.90;99.90;;;;;;4996628;28;20034;-77
2022/09/19 11:33:07;;;;;;;4.30;1.35;;;13.90;99.90;;;;;;4978609;28;20434;-77
2022/09/19 11:35:44;;;;;;;6.68;1.23;;;13.80;99.90;;;;;;4990109;28;20030;-77
2022/09/19 11:38:16;;;;;;;5.53;1.05;;;13.80;99.90;;;;;;5006422;28;20386;-76
2022/09/19 11:40:47;;;;;;;6.35;1.75;;;13.70;99.90;;;;;;4987850;28;20033;-77
2022/09/19 11:43:35;;;;;;;3.40;1.55;;;13.70;99.90;;;;;;4992958;28;20030;-78
2022/09/19 11:46:08;;;;;;;10.90;1.65;;;13.60;99.90;;;;;;4991512;28;20399;-78
2022/09/19 11:49:14;;;;;;;3.47;1.10;;;13.60;99.90;;;;;;4987784;28;20498;-78
2022/09/19 11:52:17;;;;;;;7.05;1.33;;;13.50;99.90;;;;;;4991300;28;20037;-77
2022/09/19 11:55:06;;;;;;;5.35;1.35;;;13.40;99.90;;;;;;5007789;28;20022;-77
2022/09/19 11:57:39;;;;;;;6.47;1.70;;;13.30;99.90;;;;;;4988962;28;20053;-76
2022/09/19 12:00:25;;;;;;;4.10;1.55;;;13.30;99.90;;;;;;4989176;28;20408;-77
2022/09/19 12:03:12;;;;;;;5.13;1.30;;;13.40;99.90;;;;;;4985511;28;20521;-77
2022/09/19 12:05:53;;;;;;;3.13;1.25;;;13.50;99.90;;;;;;4989781;28;20029;-77
2022/09/19 12:08:47;;;;;;;4.30;1.10;;;13.60;99.90;;;;;;4988257;28;20045;-76
2022/09/19 12:11:37;;;;;;;;;;;13.70;99.90;;;;;;5016187;28;20026;-77
2022/09/19 12:14:26;;;;;;;5.65;1.42;;;13.70;99.90;;;;;;4954107;28;19926;-77
2022/09/19 12:17:08;;;;;;;5.13;1.58;;;13.90;99.90;;;;;;4978038;28;20476;-76
2022/09/19 12:19:41;;;;;;;3.75;0.73;;;13.90;99.90;;;;;;4965852;28;20029;-77
2022/09/19 12:22:31;;;;;;;2.55;1.10;;;13.80;99.90;;;;;;5001695;28;20038;-77
2022/09/19 12:25:30;;;;;;;5.60;1.38;;;13.80;99.90;;;;;;4995971;28;20050;-77
2022/09/19 12:28:15;;;;;;;5.00;1.10;;;13.80;99.90;;;;;;4956678;28;20129;-77
2022/09/19 12:30:46;;;;;;;10.50;1.27;;;13.70;99.90;;;;;;4966943;28;20097;-79
2022/09/19 12:33:34;;;;;;;5.85;1.52;;;13.70;99.90;;;;;;4999969;28;20038;-77
2022/09/19 12:36:45;;;;;;;5.43;0.88;;;13.70;99.90;;;;;;4970830;28;20041;-77
2022/09/19 12:39:15;;;;;;;3.55;1.95;;;13.80;99.90;;;;;;4971604;28;20404;-77
2022/09/19 12:41:57;;;;;;;3.35;1.05;;;13.80;99.90;;;;;;4972069;28;20035;-78
2022/09/19 12:44:35;;;;;;;3.03;1.17;;;13.80;99.90;;;;;;4963945;28;20019;-79
2022/09/19 12:47:20;;;;;;;2.03;0.95;;;13.90;99.90;;;;;;4971340;28;20503;-78
2022/09/19 12:50:07;;;;;;;6.70;1.23;;;13.90;99.90;;;;;;4998071;28;20502;-78
2022/09/19 12:52:33;;;;;;;8.40;1.58;;;14.00;99.90;;;;;;4968686;28;20023;-77
2022/09/19 12:55:27;;;;;;;2.05;0.75;;;14.00;99.90;;;;;;4968820;28;20062;-78
2022/09/19 12:58:16;;;;;;;4.23;1.33;;;14.00;99.90;;;;;;4983437;28;20025;-79
2022/09/19 13:00:45;;;;;;;14.52;7.63;;;14.00;99.90;;;;;;5000037;28;20035;-77
2022/09/19 13:03:25;;;;;;;81.85;41.50;;;14.00;99.90;;;;;;4997923;28;20062;-78
2022/09/19 13:06:10;;;;;;;170.13;79.88;;;14.00;99.90;;;;;;4977615;28;20031;-77
2022/09/19 13:08:56;;;;;;;257.85;121.78;;;13.90;99.90;;;;;;4968344;28;20810;-77
2022/09/19 13:11:28;;;;;;;200.82;87.47;;;13.90;99.90;;;;;;4997827;28;20033;-77
2022/09/19 13:14:13;;;;;;;26.23;12.70;;;13.90;99.90;;;;;;4995695;28;20026;-76
2022/09/19 13:23:29;;;;;;;320.27;152.25;;;13.90;99.90;;;;;;5000379;28;20121;-76
2022/09/19 13:24:47;;;;;;;26.73;14.50;;;14.10;99.90;;;;;;4970282;28;20358;-76
2022/09/19 13:27:14;;;;;;;21.30;13.95;;;14.20;99.90;;;;;;4964781;28;20030;-77
2022/09/19 13:29:45;;;;;;;19.52;14.50;;;14.20;99.90;;;;;;4970758;28;20050;-77
2022/09/19 13:32:27;;;;;;;34.20;27.73;;;14.20;99.90;;;;;;4963772;28;20415;-77
2022/09/19 13:35:00;;;;;;;46.28;37.17;;;14.30;99.90;;;;;;4970240;28;20310;-77
2022/09/19 13:37:26;;;;;;;28.73;20.05;;;14.30;99.90;;;;;;4967137;28;20142;-77
2022/09/19 13:40:16;;;;;;;124.30;93.40;;;14.30;99.90;;;;;;4969079;28;20126;-77
2022/09/19 13:43:00;;;;;;;34.78;26.10;;;14.30;99.90;;;;;;5001207;28;20030;-77
2022/09/19 13:45:54;;;;;;;31.52;20.88;;;14.40;99.90;;;;;;4996694;28;20030;-77
2022/09/19 13:48:46;;;;;;;77.13;51.97;;;14.40;99.90;;;;;;4965748;28;20022;-77
2022/09/19 13:51:19;;;;;;;129.07;85.70;;;14.40;99.90;;;;;;4962254;28;20050;-77
2022/09/19 13:54:14;;;;;;;298.57;201.37;;;14.30;99.90;;;;;;4965520;28;20030;-77
2022/09/19 13:56:40;;;;;;;120.18;74.60;;;14.30;99.90;;;;;;4970290;28;20031;-77
2022/09/19 13:59:23;;;;;;;96.78;55.47;;;14.10;99.90;;;;;;4964605;28;20045;-77
2022/09/19 14:02:11;;;;;;;16.00;9.65;;;14.10;99.90;;;;;;4968565;28;20034;-77
2022/09/19 14:05:05;;;;;;;11.63;6.00;;;14.00;99.90;;;;;;4994761;28;20031;-77
2022/09/19 14:07:50;;;;;;;6.87;3.47;;;14.00;99.90;;;;;;4998776;28;20051;-78
2022/09/19 14:10:27;;;;;;;4.55;2.70;;;14.00;99.90;;;;;;4998818;28;20035;-76
2022/09/19 14:13:00;;;;;;;6.10;1.73;;;14.10;99.90;;;;;;4999497;28;20028;-77
2022/09/19 14:15:48;;;;;;;4.00;2.63;;;14.10;99.90;;;;;;4990926;28;20092;-77
2022/09/19 14:18:15;;;;;;;1.80;0.75;;;14.20;99.90;;;;;;4969631;28;20027;-77
2022/09/19 14:21:02;;;;;;;1.95;0.75;;;14.30;99.90;;;;;;5006938;28;20034;-77
2022/09/19 14:23:50;;;;;;;3.35;1.10;;;14.40;99.90;;;;;;4975413;28;20028;-76
2022/09/19 14:26:19;;;;;;;3.20;1.35;;;14.50;99.90;;;;;;4985537;28;20118;-77
2022/09/19 14:29:05;;;;;;;1.75;0.77;;;14.60;99.90;;;;;;4975375;28;20057;-77
2022/09/19 14:31:58;;;;;;;2.38;0.77;;;14.70;99.90;;;;;;4971218;28;20027;-76
2022/09/19 14:34:47;;;;;;;2.95;0.73;;;14.70;99.90;;;;;;4971672;28;20109;-76
2022/09/19 14:37:53;;;;;;;2.90;0.77;;;14.80;99.90;;;;;;4972307;28;20027;-77
2022/09/19 14:40:38;;;;;;;1.60;0.93;;;14.80;99.90;;;;;;4995772;28;20118;-77
2022/09/19 14:43:44;;;;;;;1.58;0.57;;;14.80;99.90;;;;;;5000620;28;20027;-77